Time;durP1;ratioP1;P1;durP2;ratioP2;P2;SDS_P1;SDS_P2;PMS_P1;PMS_P2;Temp;Humidity;BMP_temperature;BMP_pressure;BME280_temperature;BME280_humidity;BME280_pressure;Samples;Min_cycle;Max_cycle;Signal;HPM_P1;HPM_P2
2021/12/18 00:05:09;;;;;;;0.80;0.70;;;17.90;67.40;;;;;;10416465;28;20806;-73
2021/12/18 00:10:32;;;;;;;1.20;0.90;;;17.90;67.40;;;;;;10416269;28;20220;-73
2021/12/18 00:15:54;;;;;;;0.97;0.87;;;17.80;67.30;;;;;;10416094;28;20193;-73
2021/12/18 00:26:38;;;;;;;1.47;0.97;;;17.90;67.20;;;;;;10413486;28;20692;-71
2021/12/18 00:32:00;;;;;;;0.90;0.90;;;17.90;67.40;;;;;;10419866;28;20220;-74
2021/12/18 00:37:23;;;;;;;0.97;0.80;;;17.90;67.40;;;;;;10431450;28;20204;-73
2021/12/18 00:42:49;;;;;;;1.10;0.87;;;17.90;67.30;;;;;;10417452;28;20218;-72
2021/12/18 00:48:11;;;;;;;0.83;0.70;;;17.90;67.30;;;;;;10416216;28;20206;-73
2021/12/18 00:53:33;;;;;;;0.70;0.70;;;17.90;67.30;;;;;;10425322;28;20221;-73
2021/12/18 00:58:57;;;;;;;0.70;0.70;;;17.90;67.30;;;;;;10415925;28;20202;-73
2021/12/18 01:04:19;;;;;;;0.80;0.80;;;17.90;67.30;;;;;;10415466;28;20221;-72
2021/12/18 01:09:56;;;;;;;0.93;0.60;;;17.90;67.30;;;;;;10415459;28;20194;-73
2021/12/18 01:15:26;;;;;;;0.80;0.67;;;17.80;67.20;;;;;;10449556;28;20812;-73
2021/12/18 01:26:28;;;;;;;1.07;0.77;;;17.80;67.30;;;;;;10414125;28;20220;-72
2021/12/18 01:31:51;;;;;;;0.70;0.70;;;17.80;67.30;;;;;;10414537;28;20217;-72
2021/12/18 01:37:14;;;;;;;0.67;0.53;;;17.80;67.20;;;;;;10413105;28;20204;-73
2021/12/18 01:43:20;;;;;;;0.77;0.73;;;17.80;67.20;;;;;;10413539;28;20704;-73
2021/12/18 01:54:09;;;;;;;0.93;0.70;;;17.80;67.20;;;;;;10418165;28;20213;-72
2021/12/18 01:59:36;;;;;;;0.93;0.80;;;17.80;67.20;;;;;;10413622;28;20206;-72
2021/12/18 02:05:00;;;;;;;0.90;0.73;;;17.80;67.20;;;;;;10412886;28;20588;-73
2021/12/18 02:10:22;;;;;;;0.80;0.63;;;17.80;67.20;;;;;;10413197;28;20194;-72
2021/12/18 02:21:28;;;;;;;0.53;0.53;;;17.80;67.20;;;;;;10427443;28;20196;-72
2021/12/18 02:26:50;;;;;;;1.73;0.70;;;17.80;67.20;;;;;;10453053;28;20343;-73
2021/12/18 02:32:15;;;;;;;0.70;0.70;;;17.80;67.20;;;;;;10444874;28;20221;-73
2021/12/18 02:37:43;;;;;;;0.93;0.70;;;17.80;67.20;;;;;;10438198;28;20276;-73
2021/12/18 02:43:05;;;;;;;0.60;0.60;;;17.80;67.20;;;;;;10451858;28;20271;-73
2021/12/18 02:48:29;;;;;;;0.50;0.47;;;17.80;67.20;;;;;;10413081;28;20360;-72
2021/12/18 02:53:54;;;;;;;0.70;0.60;;;17.80;67.20;;;;;;10410813;28;20222;-72
2021/12/18 02:59:17;;;;;;;0.50;0.50;;;17.80;67.10;;;;;;10410841;28;20573;-72
2021/12/18 03:04:41;;;;;;;0.53;0.50;;;17.80;67.20;;;;;;10410486;28;20229;-72
2021/12/18 03:27:08;;;;;;;0.80;0.50;;;17.80;67.20;;;;;;10431250;28;20243;-73
2021/12/18 03:32:30;;;;;;;0.50;0.50;;;17.80;67.20;;;;;;10447814;28;20221;-73
2021/12/18 03:37:53;;;;;;;0.40;0.40;;;17.80;67.20;;;;;;10409885;28;20186;-73
2021/12/18 03:43:16;;;;;;;0.50;0.50;;;17.90;67.20;;;;;;10409418;28;20221;-72
2021/12/18 03:48:38;;;;;;;0.90;0.40;;;17.90;67.20;;;;;;10409786;28;20221;-72
2021/12/18 03:54:02;;;;;;;0.40;0.37;;;17.80;67.10;;;;;;10409180;28;20218;-71
2021/12/18 03:59:25;;;;;;;0.60;0.60;;;17.80;67.20;;;;;;10416732;28;20217;-73
2021/12/18 04:04:47;;;;;;;0.43;0.40;;;17.80;67.20;;;;;;10369744;28;20219;-72
2021/12/18 04:10:11;;;;;;;0.60;0.50;;;17.80;67.20;;;;;;10368857;28;20195;-72
2021/12/18 04:15:35;;;;;;;0.40;0.40;;;17.80;67.20;;;;;;10442462;28;20217;-72
2021/12/18 04:20:57;;;;;;;0.40;0.40;;;17.80;67.10;;;;;;10375098;28;20206;-72
2021/12/18 04:26:19;;;;;;;0.53;0.50;;;17.80;67.10;;;;;;10375231;28;20222;-72
2021/12/18 04:31:43;;;;;;;0.60;0.53;;;17.80;67.20;;;;;;10375471;28;20547;-73
2021/12/18 04:37:05;;;;;;;0.40;0.40;;;17.80;67.10;;;;;;10383379;28;20190;-73
2021/12/18 04:42:27;;;;;;;0.33;0.33;;;17.80;67.10;;;;;;10415910;28;20214;-72
2021/12/18 04:47:51;;;;;;;0.30;0.30;;;17.80;67.10;;;;;;10410330;28;20218;-72
2021/12/18 04:53:13;;;;;;;0.40;0.40;;;17.80;67.10;;;;;;10374788;28;20577;-73
2021/12/18 04:58:35;;;;;;;0.30;0.30;;;17.80;67.10;;;;;;10376886;28;20198;-72
2021/12/18 05:03:59;;;;;;;0.40;0.40;;;17.80;67.10;;;;;;10447400;28;20216;-73
2021/12/18 05:09:21;;;;;;;0.70;0.60;;;17.80;67.10;;;;;;10424793;28;20200;-72
2021/12/18 05:14:43;;;;;;;0.40;0.40;;;17.70;67.10;;;;;;10444796;28;20232;-72
2021/12/18 05:20:09;;;;;;;0.40;0.40;;;17.70;67.10;;;;;;10420286;28;20185;-72
2021/12/18 05:25:31;;;;;;;0.60;0.50;;;17.80;67.10;;;;;;10414766;28;20213;-72
2021/12/18 05:30:53;;;;;;;0.53;0.50;;;17.80;67.10;;;;;;10420717;28;20196;-72
2021/12/18 05:36:32;;;;;;;0.40;0.40;;;17.80;67.00;;;;;;10453894;28;20575;-72
2021/12/18 05:41:55;;;;;;;0.53;0.40;;;17.80;67.00;;;;;;10424520;28;20217;-73
2021/12/18 05:47:17;;;;;;;0.40;0.33;;;17.80;67.00;;;;;;10413649;28;20285;-72
2021/12/18 05:52:42;;;;;;;0.50;0.50;;;17.80;67.00;;;;;;10412285;28;20225;-72
2021/12/18 05:58:04;;;;;;;0.77;0.50;;;17.80;67.00;;;;;;10410585;28;20193;-72
2021/12/18 06:03:26;;;;;;;0.40;0.40;;;17.80;67.00;;;;;;10411599;28;20212;-72
2021/12/18 06:08:50;;;;;;;0.70;0.50;;;17.80;67.00;;;;;;10411590;28;20233;-72
2021/12/18 06:14:12;;;;;;;0.47;0.40;;;17.80;67.60;;;;;;10438895;28;20235;-72
2021/12/18 06:19:34;;;;;;;0.40;0.40;;;17.80;67.00;;;;;;10422037;28;20189;-72
2021/12/18 06:24:58;;;;;;;0.83;0.67;;;17.80;67.00;;;;;;10442112;22;20232;-63
2021/12/18 06:30:20;;;;;;;0.30;0.30;;;17.80;66.90;;;;;;10434982;28;20789;-64
2021/12/18 06:35:42;;;;;;;0.93;0.50;;;17.80;67.00;;;;;;10443153;28;20200;-63
2021/12/18 06:41:06;;;;;;;0.50;0.43;;;17.80;66.90;;;;;;10448081;28;20205;-64
2021/12/18 06:46:28;;;;;;;0.67;0.40;;;17.90;67.00;;;;;;10409962;28;20225;-63
2021/12/18 06:51:50;;;;;;;0.50;0.50;;;17.90;67.00;;;;;;10408646;28;20189;-64
2021/12/18 06:57:14;;;;;;;0.70;0.50;;;17.90;67.00;;;;;;10409161;28;20209;-63
2021/12/18 07:02:36;;;;;;;1.10;0.53;;;17.90;66.90;;;;;;10444144;28;20200;-64
2021/12/18 07:07:59;;;;;;;0.70;0.60;;;17.90;67.00;;;;;;10446734;28;20300;-64
2021/12/18 07:13:23;;;;;;;0.20;0.20;;;17.90;67.00;;;;;;10447807;28;20193;-64
2021/12/18 07:18:46;;;;;;;0.60;0.47;;;17.90;66.90;;;;;;10447975;28;20643;-64
2021/12/18 07:24:08;;;;;;;0.40;0.30;;;17.90;67.00;;;;;;10446956;28;20205;-64
2021/12/18 07:29:31;;;;;;;0.60;0.50;;;17.90;67.00;;;;;;10447563;28;20209;-64
2021/12/18 07:34:54;;;;;;;0.23;0.20;;;17.80;66.80;;;;;;10426373;28;20189;-64
2021/12/18 07:40:17;;;;;;;0.40;0.37;;;17.80;66.80;;;;;;10444752;28;20213;-64
2021/12/18 07:45:40;;;;;;;0.50;0.40;;;17.90;67.00;;;;;;10446922;28;20248;-64
2021/12/18 07:51:03;;;;;;;0.40;0.30;;;17.90;66.90;;;;;;10443480;28;20586;-64
2021/12/18 07:56:25;;;;;;;0.97;0.47;;;17.80;66.90;;;;;;10452647;28;20213;-64
2021/12/18 08:01:49;;;;;;;0.27;0.27;;;17.90;66.90;;;;;;10423559;28;20294;-65
2021/12/18 08:07:11;;;;;;;0.20;0.20;;;17.90;66.90;;;;;;10416237;28;20224;-65
2021/12/18 08:12:33;;;;;;;0.60;0.30;;;17.90;66.90;;;;;;10428062;28;20280;-63
2021/12/18 08:17:58;;;;;;;0.40;0.30;;;17.90;66.90;;;;;;10456146;28;20209;-63
2021/12/18 08:23:20;;;;;;;0.73;0.40;;;17.90;66.90;;;;;;10457020;28;20216;-63
2021/12/18 08:28:42;;;;;;;0.40;0.37;;;17.90;66.90;;;;;;10448376;28;20224;-63
2021/12/18 08:34:06;;;;;;;0.37;0.33;;;17.90;66.90;;;;;;10454938;28;20299;-64
2021/12/18 08:39:28;;;;;;;0.30;0.30;;;17.90;66.90;;;;;;10454758;28;20213;-64
2021/12/18 08:44:50;;;;;;;0.40;0.23;;;17.90;66.90;;;;;;10453755;28;20200;-64
2021/12/18 08:50:17;;;;;;;0.60;0.30;;;17.90;66.90;;;;;;10454632;28;20224;-64
2021/12/18 08:55:39;;;;;;;0.60;0.40;;;17.90;67.50;;;;;;10454487;28;20201;-65
2021/12/18 09:01:02;;;;;;;0.30;0.30;;;17.90;66.90;;;;;;10452969;28;20579;-64
2021/12/18 09:06:25;;;;;;;0.30;0.30;;;17.90;66.90;;;;;;10453229;28;20720;-64
2021/12/18 09:11:48;;;;;;;0.40;0.40;;;17.90;66.90;;;;;;10447677;28;20213;-63
2021/12/18 09:17:10;;;;;;;0.30;0.30;;;17.90;66.90;;;;;;10441777;28;20231;-64
2021/12/18 09:22:34;;;;;;;1.27;0.40;;;17.90;66.90;;;;;;10423560;28;20212;-65
2021/12/18 09:27:57;;;;;;;0.80;0.50;;;17.90;66.90;;;;;;10448337;28;20440;-64
2021/12/18 09:33:20;;;;;;;1.67;0.40;;;18.50;64.60;;;;;;10449897;28;20327;-64
2021/12/18 09:38:44;;;;;;;0.77;0.47;;;18.20;66.00;;;;;;10452653;28;20249;-65
2021/12/18 09:44:07;;;;;;;0.77;0.37;;;18.00;66.50;;;;;;10450514;28;20578;-64
2021/12/18 09:49:29;;;;;;;1.60;0.30;;;18.00;66.80;;;;;;10451980;28;20224;-64
2021/12/18 09:54:56;;;;;;;1.00;0.40;;;17.90;66.80;;;;;;10452574;28;20216;-64
2021/12/18 10:00:21;;;;;;;0.30;0.30;;;17.90;66.90;;;;;;10451429;28;20201;-64
2021/12/18 10:05:43;;;;;;;1.43;0.60;;;17.90;66.90;;;;;;10410751;28;20216;-64
2021/12/18 10:11:08;;;;;;;0.50;0.30;;;17.90;67.00;;;;;;10426867;28;20197;-63
2021/12/18 10:16:32;;;;;;;0.97;0.30;;;17.90;67.00;;;;;;10450848;28;20570;-64
2021/12/18 10:21:58;;;;;;;0.27;0.23;;;17.90;67.00;;;;;;10447052;28;20216;-63
2021/12/18 10:27:23;;;;;;;1.53;0.40;;;17.90;67.00;;;;;;10450085;28;20753;-64
2021/12/18 10:33:04;;;;;;;1.17;0.40;;;17.90;67.00;;;;;;10443860;28;20193;-64
2021/12/18 10:38:44;;;;;;;1.67;0.63;;;17.90;66.90;;;;;;10449194;28;20208;-64
2021/12/18 10:44:09;;;;;;;0.50;0.30;;;17.90;66.80;;;;;;10451345;28;20335;-65
2021/12/18 10:49:40;;;;;;;0.60;0.40;;;17.90;67.00;;;;;;10450975;28;20228;-64
2021/12/18 10:55:04;;;;;;;0.20;0.20;;;17.90;66.90;;;;;;10449677;28;20975;-65
2021/12/18 11:00:51;;;;;;;1.20;0.40;;;17.90;67.00;;;;;;10448672;28;20216;-65
2021/12/18 11:06:20;;;;;;;1.20;0.40;;;17.90;66.80;;;;;;10444019;28;20264;-65
2021/12/18 11:17:33;;;;;;;0.77;0.30;;;17.90;67.00;;;;;;10448605;28;20683;-64
2021/12/18 11:22:56;;;;;;;0.53;0.30;;;17.90;67.00;;;;;;10450140;28;20200;-64
2021/12/18 11:28:18;;;;;;;0.43;0.30;;;17.90;67.00;;;;;;10448916;28;20229;-64
2021/12/18 11:33:42;;;;;;;0.83;0.40;;;17.90;67.00;;;;;;10456520;28;20201;-64
2021/12/18 11:39:04;;;;;;;0.60;0.40;;;17.90;67.00;;;;;;10456948;28;20217;-64
2021/12/18 11:44:33;;;;;;;1.73;0.30;;;17.90;67.00;;;;;;10457479;28;20197;-65
2021/12/18 11:49:58;;;;;;;0.90;0.40;;;17.90;66.90;;;;;;10457199;28;20231;-64
2021/12/18 11:55:21;;;;;;;0.87;0.30;;;17.90;67.00;;;;;;10457055;28;20192;-64
2021/12/18 12:00:45;;;;;;;0.20;0.20;;;17.90;66.90;;;;;;10457298;28;20217;-64
2021/12/18 12:06:26;;;;;;;0.60;0.50;;;17.90;66.90;;;;;;10456967;28;20209;-64
2021/12/18 12:11:57;;;;;;;0.20;0.20;;;17.90;66.80;;;;;;10456507;28;20678;-64
2021/12/18 12:17:24;;;;;;;0.87;0.30;;;17.90;66.90;;;;;;10456984;28;20209;-64
2021/12/18 12:22:53;;;;;;;1.30;0.30;;;17.90;67.00;;;;;;10477482;23;20205;-72
2021/12/18 12:28:19;;;;;;;0.60;0.33;;;17.90;67.00;;;;;;10374005;28;20301;-72
2021/12/18 12:33:43;;;;;;;0.30;0.30;;;17.90;67.00;;;;;;10373547;28;20213;-72
2021/12/18 12:39:07;;;;;;;0.40;0.23;;;17.80;66.90;;;;;;10373364;28;20666;-72
2021/12/18 12:44:49;;;;;;;0.40;0.30;;;17.80;66.90;;;;;;10374146;28;20214;-73
2021/12/18 12:50:29;;;;;;;0.40;0.30;;;17.90;66.80;;;;;;10380580;28;20210;-74
2021/12/18 12:55:53;;;;;;;0.10;0.10;;;17.90;66.80;;;;;;10348147;28;20230;-78
2021/12/18 13:01:15;;;;;;;0.80;0.30;;;17.90;67.00;;;;;;10360266;28;20430;-73
2021/12/18 13:06:37;;;;;;;0.97;0.50;;;18.60;64.10;;;;;;10372629;28;20602;-73
2021/12/18 13:12:06;;;;;;;0.60;0.50;;;18.20;65.70;;;;;;10372051;28;20210;-73
2021/12/18 13:17:29;;;;;;;0.43;0.40;;;18.00;66.20;;;;;;10372132;28;20689;-73
2021/12/18 13:22:54;;;;;;;2.10;0.80;;;18.00;66.50;;;;;;10370154;28;20230;-73
2021/12/18 13:28:18;;;;;;;2.10;0.50;;;17.90;66.60;;;;;;10368927;28;20233;-73
2021/12/18 13:33:42;;;;;;;1.40;0.40;;;17.90;66.70;;;;;;10371051;28;20222;-73
2021/12/18 13:39:08;;;;;;;1.47;0.43;;;17.90;66.70;;;;;;10359080;28;20213;-73
2021/12/18 13:44:47;;;;;;;1.55;0.50;;;17.90;66.80;;;;;;10368526;28;20411;-71
2021/12/18 13:50:13;;;;;;;0.50;0.40;;;18.30;65.30;;;;;;10371517;28;20309;-71
2021/12/18 13:55:39;;;;;;;3.87;0.93;;;18.10;66.40;;;;;;10366306;28;20226;-71
2021/12/18 14:01:06;;;;;;;2.40;1.17;;;17.90;66.80;;;;;;10369065;28;20285;-72
2021/12/18 14:06:32;;;;;;;1.10;0.90;;;17.90;67.00;;;;;;10369323;28;20227;-73
2021/12/18 14:11:57;;;;;;;1.30;0.90;;;17.90;67.10;;;;;;10369604;28;20740;-72
2021/12/18 14:17:34;;;;;;;4.30;1.40;;;17.90;67.10;;;;;;10367568;28;20294;-74
2021/12/18 14:23:11;;;;;;;2.20;1.20;;;17.90;66.90;;;;;;10365929;28;20226;-73
2021/12/18 14:28:35;;;;;;;3.20;1.80;;;17.90;66.90;;;;;;10368217;28;20210;-73
2021/12/18 14:34:01;;;;;;;2.00;1.37;;;17.90;67.10;;;;;;10367901;28;20230;-73
2021/12/18 14:39:36;;;;;;;2.80;1.50;;;17.90;67.10;;;;;;10367499;28;20217;-73
2021/12/18 14:45:01;;;;;;;2.33;1.57;;;18.00;67.10;;;;;;10361931;28;20222;-72
2021/12/18 14:50:27;;;;;;;4.00;1.60;;;18.00;67.20;;;;;;10364485;28;20575;-74
2021/12/18 14:55:52;;;;;;;3.30;2.00;;;18.00;67.20;;;;;;10365200;28;20222;-73
2021/12/18 15:01:17;;;;;;;4.37;1.70;;;18.00;67.30;;;;;;10365853;28;20201;-73
2021/12/18 15:06:44;;;;;;;2.93;1.77;;;18.00;68.10;;;;;;10358549;28;20226;-72
2021/12/18 15:12:08;;;;;;;3.43;1.97;;;18.10;68.70;;;;;;10363078;28;20202;-73
2021/12/18 15:17:35;;;;;;;3.20;1.93;;;18.10;68.80;;;;;;10365481;28;20198;-73
2021/12/18 15:22:58;;;;;;;3.13;2.10;;;18.10;68.90;;;;;;10360301;28;20712;-73
2021/12/18 15:28:21;;;;;;;3.57;1.80;;;18.10;69.00;;;;;;10365303;28;20214;-74
2021/12/18 15:33:43;;;;;;;5.10;2.30;;;18.10;69.10;;;;;;10365298;28;20214;-73
2021/12/18 15:39:07;;;;;;;2.77;2.10;;;18.20;69.20;;;;;;10367297;28;20214;-73
2021/12/18 15:44:30;;;;;;;3.83;2.10;;;18.10;69.70;;;;;;10325910;28;20433;-72
2021/12/18 15:49:52;;;;;;;5.97;2.13;;;18.70;68.00;;;;;;10326505;28;20291;-72
2021/12/18 15:55:15;;;;;;;2.90;1.83;;;18.30;68.50;;;;;;10326704;28;20225;-72
2021/12/18 16:00:41;;;;;;;3.13;1.80;;;18.10;68.80;;;;;;10343213;28;20187;-72
2021/12/18 16:06:05;;;;;;;3.50;1.60;;;18.10;68.90;;;;;;10358975;28;20593;-72
2021/12/18 16:11:28;;;;;;;21.30;8.70;;;18.00;68.90;;;;;;10355342;28;20432;-72
2021/12/18 16:16:50;;;;;;;10.53;3.50;;;18.40;66.80;;;;;;10369131;28;20453;-72
2021/12/18 16:22:13;;;;;;;7.73;2.90;;;18.20;65.60;;;;;;10370951;28;20199;-72
2021/12/18 16:27:37;;;;;;;11.67;3.90;;;18.10;66.40;;;;;;10382766;28;20243;-73
2021/12/18 16:33:00;;;;;;;6.73;3.03;;;18.00;65.80;;;;;;10382538;28;20237;-73
2021/12/18 16:38:35;;;;;;;6.90;2.90;;;18.00;67.00;;;;;;10377607;28;20224;-73
2021/12/18 16:43:58;;;;;;;5.43;2.93;;;18.00;67.20;;;;;;10363787;28;20219;-73
2021/12/18 16:49:20;;;;;;;3.60;2.30;;;18.00;67.20;;;;;;10367489;28;20229;-74
2021/12/18 16:54:43;;;;;;;4.47;2.43;;;18.00;67.10;;;;;;10366593;28;20226;-74
2021/12/18 17:00:08;;;;;;;5.70;2.63;;;18.00;67.10;;;;;;10367349;28;20202;-73
2021/12/18 17:05:32;;;;;;;6.33;3.20;;;18.00;67.20;;;;;;10358212;28;20301;-73
2021/12/18 17:10:55;;;;;;;5.93;2.60;;;18.10;67.20;;;;;;10367204;28;20225;-73
2021/12/18 17:16:20;;;;;;;7.70;2.77;;;18.00;67.20;;;;;;10330666;28;20226;-73
2021/12/18 17:21:43;;;;;;;4.83;2.87;;;18.00;67.20;;;;;;10367512;28;20198;-73
2021/12/18 17:27:06;;;;;;;3.43;2.23;;;18.00;67.20;;;;;;10364702;28;20230;-73
2021/12/18 17:32:29;;;;;;;4.57;2.87;;;18.00;67.30;;;;;;10365938;28;20198;-73
2021/12/18 17:37:52;;;;;;;5.10;2.50;;;18.00;67.30;;;;;;10364749;28;20194;-73
2021/12/18 17:43:14;;;;;;;5.70;2.50;;;18.00;67.30;;;;;;10364474;28;20214;-72
2021/12/18 17:48:38;;;;;;;5.83;2.83;;;18.00;67.30;;;;;;10365412;28;20222;-72
2021/12/18 17:54:00;;;;;;;4.70;2.77;;;18.00;67.30;;;;;;10363047;28;20253;-73
2021/12/18 17:59:22;;;;;;;4.20;2.47;;;18.00;67.40;;;;;;10361659;28;20188;-73
2021/12/18 18:04:46;;;;;;;4.33;2.70;;;18.00;67.40;;;;;;10403332;28;20214;-72
2021/12/18 18:10:10;;;;;;;5.70;2.70;;;18.00;67.40;;;;;;10409279;28;20228;-73
2021/12/18 18:15:33;;;;;;;4.83;2.57;;;18.00;67.40;;;;;;10404310;28;20308;-73
2021/12/18 18:20:58;;;;;;;4.23;2.40;;;18.00;67.40;;;;;;10361137;28;20190;-72
2021/12/18 18:26:21;;;;;;;3.70;2.13;;;18.00;67.40;;;;;;10364086;28;20234;-73
2021/12/18 18:31:44;;;;;;;5.17;2.67;;;18.00;67.40;;;;;;10363716;28;20194;-73
2021/12/18 18:37:08;;;;;;;4.67;2.30;;;18.00;67.50;;;;;;10362381;28;20206;-74
2021/12/18 18:42:30;;;;;;;3.57;2.23;;;18.00;67.40;;;;;;10395908;22;20291;-67
2021/12/18 18:47:58;;;;;;;3.60;2.07;;;18.00;67.40;;;;;;10380030;28;20295;-62
2021/12/18 18:53:22;;;;;;;3.07;1.80;;;18.00;67.50;;;;;;10364822;28;20194;-62
2021/12/18 18:58:44;;;;;;;3.10;2.10;;;17.90;67.40;;;;;;10366605;28;20604;-62
2021/12/18 19:04:06;;;;;;;4.03;1.90;;;18.00;67.50;;;;;;10367286;28;20567;-63
2021/12/18 19:09:30;;;;;;;2.77;1.57;;;17.90;67.40;;;;;;10361696;28;20683;-64
2021/12/18 19:14:52;;;;;;;2.90;1.90;;;17.90;67.40;;;;;;10361749;28;20214;-64
2021/12/18 19:20:17;;;;;;;3.27;1.80;;;18.00;67.50;;;;;;10360740;28;20720;-64
2021/12/18 19:25:40;;;;;;;3.17;2.03;;;18.00;67.40;;;;;;10352497;28;20618;-64
2021/12/18 19:31:05;;;;;;;4.37;2.20;;;18.00;67.30;;;;;;10359610;28;20244;-61
2021/12/18 19:36:27;;;;;;;3.43;1.80;;;18.00;67.30;;;;;;10361850;28;20272;-59
2021/12/18 19:41:51;;;;;;;3.20;2.10;;;18.00;67.30;;;;;;10359938;28;20699;-62
2021/12/18 19:47:13;;;;;;;4.50;1.90;;;18.00;67.30;;;;;;10362792;28;20226;-62
2021/12/18 19:52:35;;;;;;;3.80;1.90;;;18.00;67.30;;;;;;10368144;28;20580;-62
2021/12/18 19:57:59;;;;;;;2.73;1.77;;;18.00;67.30;;;;;;10393342;28;20229;-62
2021/12/18 20:09:01;;;;;;;2.63;1.53;;;18.00;67.30;;;;;;10369076;28;20286;-66
2021/12/18 20:14:27;;;;;;;3.03;1.77;;;18.00;67.40;;;;;;10394409;28;20730;-63
2021/12/18 20:19:49;;;;;;;2.57;1.83;;;18.00;67.40;;;;;;10376845;28;20218;-62
2021/12/18 20:25:11;;;;;;;4.40;1.93;;;17.90;67.30;;;;;;10367702;28;20209;-62
2021/12/18 20:30:36;;;;;;;2.83;1.70;;;18.00;67.40;;;;;;10367119;28;20214;-62
2021/12/18 20:36:00;;;;;;;4.67;1.90;;;18.00;67.40;;;;;;10409427;28;20205;-61
2021/12/18 20:41:23;;;;;;;3.20;1.67;;;17.90;67.30;;;;;;10368813;28;20274;-61
2021/12/18 20:46:46;;;;;;;3.23;1.77;;;17.90;67.30;;;;;;10365370;28;20233;-59
2021/12/18 20:52:08;;;;;;;3.77;1.80;;;17.90;67.30;;;;;;10405153;28;20663;-61
2021/12/18 20:57:31;;;;;;;2.53;1.60;;;18.00;67.40;;;;;;10386594;28;20270;-62
2021/12/18 21:03:04;;;;;;;1.83;1.40;;;18.00;67.40;;;;;;10396288;28;20579;-61
2021/12/18 21:08:27;;;;;;;2.50;1.50;;;17.90;67.30;;;;;;10399699;28;20210;-60
2021/12/18 21:13:51;;;;;;;2.97;1.67;;;18.00;67.40;;;;;;10385327;28;20545;-61
2021/12/18 21:19:14;;;;;;;1.37;1.13;;;18.00;67.40;;;;;;10370925;28;20795;-62
2021/12/18 21:24:36;;;;;;;1.90;1.30;;;18.00;67.40;;;;;;10371592;28;20701;-62
2021/12/18 21:29:59;;;;;;;2.30;1.47;;;17.90;67.30;;;;;;10382219;28;20244;-61
2021/12/18 21:41:05;;;;;;;1.93;1.40;;;17.90;67.30;;;;;;10375702;28;20297;-65
2021/12/18 21:46:28;;;;;;;2.27;1.23;;;17.90;67.40;;;;;;10367683;28;20222;-63
2021/12/18 21:51:52;;;;;;;3.17;1.47;;;17.90;67.30;;;;;;10365643;28;20210;-62
2021/12/18 21:57:14;;;;;;;2.03;1.23;;;17.90;67.40;;;;;;10364659;28;20281;-62
2021/12/18 22:02:36;;;;;;;2.13;1.13;;;17.90;67.40;;;;;;10364888;28;20199;-63
2021/12/18 22:08:02;;;;;;;2.03;1.57;;;17.90;67.40;;;;;;10364704;28;20222;-63
2021/12/18 22:13:24;;;;;;;1.90;1.20;;;17.90;67.40;;;;;;10363615;28;20202;-62
2021/12/18 22:18:47;;;;;;;2.23;1.30;;;17.90;67.30;;;;;;10362616;28;20222;-62
2021/12/18 22:24:12;;;;;;;1.67;1.00;;;17.90;67.30;;;;;;10364700;28;22265;-64
2021/12/18 22:29:34;;;;;;;1.63;1.20;;;17.90;67.30;;;;;;10367858;28;20225;-61
2021/12/18 22:34:57;;;;;;;1.83;1.33;;;17.80;67.20;;;;;;10363421;28;20202;-61
2021/12/18 22:40:21;;;;;;;2.13;1.20;;;17.90;67.30;;;;;;10362251;28;20225;-61
2021/12/18 22:45:43;;;;;;;1.93;1.30;;;17.90;67.30;;;;;;10362329;28;20198;-60
2021/12/18 22:51:05;;;;;;;2.33;1.30;;;17.90;67.30;;;;;;10363680;28;20202;-63
2021/12/18 22:56:29;;;;;;;2.10;1.17;;;17.80;67.20;;;;;;10366597;28;20221;-60
2021/12/18 23:01:51;;;;;;;1.33;0.97;;;17.90;67.80;;;;;;10366041;28;20213;-65
2021/12/18 23:07:14;;;;;;;1.27;1.00;;;17.90;67.20;;;;;;10364535;28;20221;-63
2021/12/18 23:12:44;;;;;;;2.20;1.23;;;17.80;67.20;;;;;;10363712;28;20199;-65
2021/12/18 23:18:19;;;;;;;1.20;1.00;;;17.90;67.20;;;;;;10361879;28;20222;-65
2021/12/18 23:23:41;;;;;;;1.60;1.20;;;17.90;67.20;;;;;;10360988;28;20688;-65
2021/12/18 23:29:06;;;;;;;1.37;1.10;;;17.90;67.20;;;;;;10363132;28;20217;-65
2021/12/18 23:34:28;;;;;;;1.70;1.20;;;17.90;67.20;;;;;;10376649;28;20689;-61
2021/12/18 23:39:50;;;;;;;1.53;1.00;;;17.80;67.10;;;;;;10370660;28;20714;-61
2021/12/18 23:50:53;;;;;;;1.20;0.93;;;17.80;67.10;;;;;;10367462;28;20215;-61
2021/12/18 23:56:16;;;;;;;1.03;0.93;;;17.80;67.10;;;;;;10379771;28;20563;-59
